Time;durP1;ratioP1;P1;durP2;ratioP2;P2;SDS_P1;SDS_P2;PMS_P1;PMS_P2;Temp;Humidity;BMP_temperature;BMP_pressure;BME280_temperature;BME280_humidity;BME280_pressure;Samples;Min_cycle;Max_cycle;Signal;HPM_P1;HPM_P2
2022/05/12 00:00:30;;;;;;;0.00;0.00;;;20.10;99.90;19.50;96639.00;;;;5071747;28;20213;-69
2022/05/12 00:02:59;;;;;;;0.00;0.00;;;20.00;99.90;19.40;96625.00;;;;5053884;28;20201;-71
2022/05/12 00:05:27;;;;;;;0.00;0.00;;;19.90;99.90;19.40;96628.00;;;;5048021;28;20301;-69
2022/05/12 00:07:56;;;;;;;0.00;0.00;;;19.90;99.90;19.40;96659.00;;;;5054025;28;20489;-69
2022/05/12 00:10:26;;;;;;;0.00;0.00;;;19.90;99.90;19.30;96641.00;;;;5055261;28;20254;-69
2022/05/12 00:12:58;;;;;;;0.00;0.00;;;19.80;99.90;19.30;96644.00;;;;5071686;28;20602;-69
2022/05/12 00:15:31;;;;;;;0.00;0.00;;;19.80;99.90;19.30;96620.00;;;;5049020;28;20214;-69
2022/05/12 00:18:02;;;;;;;0.00;0.00;;;19.80;99.90;19.30;96615.00;;;;5053969;28;20206;-69
2022/05/12 00:20:32;;;;;;;0.00;0.00;;;19.80;99.90;19.30;96606.00;;;;5062647;28;20200;-69
2022/05/12 00:23:09;;;;;;;0.00;0.00;;;19.90;99.90;19.30;96613.00;;;;5058421;28;20195;-68
2022/05/12 00:25:39;;;;;;;0.00;0.00;;;19.80;99.90;19.30;96590.00;;;;5054168;28;20617;-69
2022/05/12 00:28:09;;;;;;;0.00;0.00;;;19.80;99.90;19.20;96604.00;;;;5070771;28;20271;-69
2022/05/12 00:30:37;;;;;;;0.00;0.00;;;19.80;99.90;19.10;96585.00;;;;5038043;28;20216;-70
2022/05/12 00:33:07;;;;;;;0.00;0.00;;;19.70;99.90;19.10;96606.00;;;;5060285;28;20698;-68
2022/05/12 00:35:42;;;;;;;0.00;0.00;;;19.70;99.90;19.20;96606.00;;;;5052676;28;20329;-68
2022/05/12 00:38:11;;;;;;;0.00;0.00;;;19.70;99.90;19.20;96593.00;;;;5053685;28;20194;-67
2022/05/12 00:40:41;;;;;;;0.00;0.00;;;19.70;99.90;19.10;96573.00;;;;5055453;28;20198;-70
2022/05/12 00:43:50;;;;;;;0.00;0.00;;;19.70;99.90;19.10;96579.00;;;;5072031;28;20190;-68
2022/05/12 00:46:22;;;;;;;0.00;0.00;;;19.70;99.90;19.10;96549.00;;;;5063887;28;20218;-68
2022/05/12 00:48:52;;;;;;;0.00;0.00;;;19.70;99.90;18.60;94960.00;;;;5048487;28;20244;-67
2022/05/12 00:51:27;;;;;;;0.00;0.00;;;19.70;99.90;18.60;95380.00;;;;5054664;28;20659;-67
2022/05/12 00:53:59;;;;;;;0.00;0.00;;;19.70;99.90;19.10;96586.00;;;;5061418;28;20200;-67
2022/05/12 00:56:27;;;;;;;0.00;0.00;;;19.60;99.90;19.10;96582.00;;;;5046044;28;20214;-68
2022/05/12 00:59:03;;;;;;;0.00;0.00;;;19.60;99.90;19.10;96590.00;;;;5052607;28;20563;-67
2022/05/12 01:01:31;;;;;;;0.00;0.00;;;19.60;99.90;19.10;96588.00;;;;5066253;28;20236;-69
2022/05/12 01:04:01;;;;;;;0.00;0.00;;;19.60;99.90;19.10;96588.00;;;;5055938;28;20595;-68
2022/05/12 01:06:29;;;;;;;0.00;0.00;;;19.60;99.90;19.00;96572.00;;;;5051795;28;20246;-68
2022/05/12 01:08:57;;;;;;;0.00;0.00;;;19.60;99.90;19.00;96537.00;;;;5052569;28;20222;-68
2022/05/12 01:11:26;;;;;;;0.00;0.00;;;19.60;99.90;19.00;96555.00;;;;5065810;28;20189;-67
2022/05/12 01:14:01;;;;;;;0.00;0.00;;;19.60;99.90;19.10;96578.00;;;;5065477;28;20197;-67
2022/05/12 01:16:46;;;;;;;0.00;0.00;;;19.60;99.90;18.50;95291.00;;;;5055061;28;20218;-68
2022/05/12 01:19:18;;;;;;;0.00;0.00;;;19.60;99.90;18.50;95233.00;;;;5052202;28;20202;-69
2022/05/12 01:21:49;;;;;;;0.00;0.00;;;19.60;99.90;18.50;95329.00;;;;5047612;28;20199;-70
2022/05/12 01:24:22;;;;;;;0.00;0.00;;;19.60;99.90;18.50;95297.00;;;;5063890;28;20201;-68
2022/05/12 01:26:50;;;;;;;0.00;0.00;;;19.60;99.90;19.10;96626.00;;;;5052262;28;20202;-68
2022/05/12 01:29:18;;;;;;;0.00;0.00;;;19.60;99.90;19.10;96622.00;;;;5035906;28;20199;-70
2022/05/12 01:31:46;;;;;;;0.00;0.00;;;19.60;99.90;19.10;96612.00;;;;5051092;28;20203;-69
2022/05/12 01:34:15;;;;;;;0.00;0.00;;;19.60;99.90;19.10;96623.00;;;;5053809;28;20191;-69
2022/05/12 01:36:43;;;;;;;0.00;0.00;;;19.60;99.90;19.10;96638.00;;;;5052670;28;20790;-68
2022/05/12 01:39:11;;;;;;;0.00;0.00;;;19.60;99.90;19.00;96647.00;;;;5052976;28;20195;-68
2022/05/12 01:41:41;;;;;;;0.00;0.00;;;19.60;99.90;19.00;96645.00;;;;5063080;28;20559;-68
2022/05/12 01:44:08;;;;;;;0.00;0.00;;;19.50;99.90;18.90;96646.00;;;;5071304;28;20247;-68
2022/05/12 01:46:38;;;;;;;0.00;0.00;;;19.50;99.90;18.90;96657.00;;;;5051085;28;20221;-69
2022/05/12 01:49:06;;;;;;;0.00;0.00;;;19.50;99.90;18.90;96657.00;;;;5048404;28;20218;-67
2022/05/12 01:51:38;;;;;;;0.00;0.00;;;19.40;99.90;18.90;96671.00;;;;5054590;28;20194;-70
2022/05/12 01:54:06;;;;;;;0.00;0.00;;;19.40;99.90;18.90;96657.00;;;;5047771;28;20222;-69
2022/05/12 01:56:34;;;;;;;0.00;0.00;;;19.40;99.90;18.80;96667.00;;;;5038697;28;20222;-68
2022/05/12 01:59:03;;;;;;;0.00;0.00;;;19.40;99.90;18.80;96678.00;;;;5045923;28;20199;-69
2022/05/12 02:01:31;;;;;;;0.00;0.00;;;19.30;99.90;18.80;96675.00;;;;5048953;28;20194;-68
2022/05/12 02:04:01;;;;;;;0.00;0.00;;;19.30;99.90;18.80;96671.00;;;;5066080;28;20185;-73
2022/05/12 02:06:29;;;;;;;0.00;0.00;;;19.30;99.90;18.70;96680.00;;;;5052388;28;20689;-69
2022/05/12 02:08:57;;;;;;;0.00;0.00;;;19.30;99.90;18.70;96668.00;;;;5051920;28;20227;-69
2022/05/12 02:11:26;;;;;;;0.00;0.00;;;19.20;99.90;18.60;96663.00;;;;5052379;28;20221;-70
2022/05/12 02:13:54;;;;;;;0.00;0.00;;;19.20;99.90;18.60;96671.00;;;;5065784;28;20197;-69
2022/05/12 02:16:25;;;;;;;0.00;0.00;;;19.10;99.90;18.70;96679.00;;;;5071357;28;20620;-72
2022/05/12 02:18:54;;;;;;;0.00;0.00;;;19.10;99.90;18.40;96670.00;;;;5049980;28;20202;-69
2022/05/12 02:21:22;;;;;;;0.00;0.00;;;19.00;99.90;18.40;96681.00;;;;5043711;28;20193;-70
2022/05/12 02:23:50;;;;;;;0.00;0.00;;;19.00;99.90;18.40;96675.00;;;;5053678;28;20704;-71
2022/05/12 02:26:18;;;;;;;0.00;0.00;;;19.00;99.90;18.40;96664.00;;;;5053049;28;20224;-72
2022/05/12 02:28:46;;;;;;;0.00;0.00;;;18.90;99.90;18.40;96674.00;;;;5071204;28;20388;-69
2022/05/12 02:31:14;;;;;;;0.00;0.00;;;18.90;99.90;18.30;96675.00;;;;5053706;28;20194;-70
2022/05/12 02:33:44;;;;;;;0.00;0.00;;;18.80;99.90;18.30;96678.00;;;;5041960;28;20675;-70
2022/05/12 02:36:12;;;;;;;0.00;0.00;;;18.80;99.90;18.20;96680.00;;;;5047231;28;20220;-70
2022/05/12 02:38:40;;;;;;;0.00;0.00;;;18.80;99.90;18.10;96674.00;;;;5071311;28;20241;-71
2022/05/12 02:41:08;;;;;;;0.00;0.00;;;18.70;99.90;18.10;96685.00;;;;5056257;28;20185;-69
2022/05/12 02:43:37;;;;;;;0.00;0.00;;;18.70;99.90;18.10;96691.00;;;;5070023;28;20197;-69
2022/05/12 02:46:07;;;;;;;0.00;0.00;;;18.70;99.90;18.00;96695.00;;;;5065393;28;20273;-68
2022/05/12 02:48:39;;;;;;;0.00;0.00;;;18.70;1.00;18.00;96709.00;;;;5050931;28;20484;-69
2022/05/12 02:51:09;;;;;;;0.00;0.00;;;18.60;1.00;18.00;96715.00;;;;5048629;28;20259;-68
2022/05/12 02:53:38;;;;;;;0.00;0.00;;;18.60;1.00;17.20;95381.00;;;;5052632;28;20247;-71
2022/05/12 02:56:08;;;;;;;0.00;0.00;;;18.60;1.00;17.40;95441.00;;;;5038628;28;20279;-68
2022/05/12 02:58:36;;;;;;;0.00;0.00;;;18.60;25.30;17.40;95361.00;;;;5041655;28;20202;-68
2022/05/12 03:01:06;;;;;;;0.00;0.00;;;18.60;99.90;17.40;95510.00;;;;5062693;28;20204;-68
2022/05/12 03:03:34;;;;;;;0.00;0.00;;;18.60;99.90;17.50;95569.00;;;;5068818;28;20190;-68
2022/05/12 03:06:03;;;;;;;0.00;0.00;;;18.60;99.90;17.50;95620.00;;;;5061032;28;20209;-68
2022/05/12 03:08:32;;;;;;;0.00;0.00;;;18.60;1.00;17.40;95512.00;;;;5060679;28;20305;-68
2022/05/12 03:11:02;;;;;;;0.00;0.00;;;18.60;1.00;17.40;95487.00;;;;5064608;28;20577;-69
2022/05/12 03:13:31;;;;;;;0.00;0.00;;;18.60;1.00;17.40;95583.00;;;;5067196;28;20187;-71
2022/05/12 03:16:00;;;;;;;0.00;0.00;;;18.50;1.00;17.40;95568.00;;;;5057244;28;20583;-69
2022/05/12 03:18:28;;;;;;;0.00;0.00;;;18.50;1.00;17.40;95572.00;;;;5050126;28;20202;-69
2022/05/12 03:20:56;;;;;;;0.00;0.00;;;18.50;1.00;17.40;95591.00;;;;5051084;28;20190;-68
2022/05/12 03:23:25;;;;;;;0.00;0.00;;;18.50;30.80;17.40;95608.00;;;;5053977;28;20707;-68
2022/05/12 03:25:55;;;;;;;0.00;0.00;;;18.50;99.90;17.30;95556.00;;;;5039019;28;20618;-68
2022/05/12 03:28:24;;;;;;;0.00;0.00;;;18.50;99.90;17.30;95574.00;;;;5052777;28;20214;-68
2022/05/12 03:30:52;;;;;;;0.00;0.00;;;18.50;1.00;17.30;95652.00;;;;5061263;28;20189;-68
2022/05/12 03:33:21;;;;;;;0.00;0.00;;;18.40;1.00;17.30;95631.00;;;;5054516;28;20191;-69
2022/05/12 03:35:50;;;;;;;0.00;0.00;;;18.40;1.00;17.30;95799.00;;;;5036928;28;20242;-68
2022/05/12 03:38:18;;;;;;;0.00;0.00;;;18.40;1.00;17.20;95797.00;;;;5047036;28;20600;-72
2022/05/12 03:40:46;;;;;;;0.10;0.10;;;18.40;1.00;17.30;95897.00;;;;5045565;28;20671;-68
2022/05/12 03:44:46;;;;;;;0.00;0.00;;;18.40;1.00;17.20;95775.00;;;;5071613;28;20314;-68
2022/05/12 03:46:05;;;;;;;0.00;0.00;;;18.30;1.00;17.20;95606.00;;;;5048831;28;20222;-68
2022/05/12 03:48:36;;;;;;;0.00;0.00;;;18.40;44.50;17.10;95755.00;;;;5047596;28;20688;-70
2022/05/12 03:51:05;;;;;;;0.00;0.00;;;18.30;99.90;17.10;95640.00;;;;5058925;28;20215;-68
2022/05/12 03:53:34;;;;;;;0.00;0.00;;;18.30;99.90;17.10;95707.00;;;;5063770;28;20206;-69
2022/05/12 03:56:03;;;;;;;0.00;0.00;;;18.20;1.00;17.10;95772.00;;;;5067344;28;20703;-69
2022/05/12 03:58:33;;;;;;;0.00;0.00;;;18.20;1.00;17.00;95654.00;;;;5051153;28;20484;-69
2022/05/12 04:01:02;;;;;;;0.00;0.00;;;18.10;1.00;17.00;95828.00;;;;5058352;28;20197;-68
2022/05/12 04:03:30;;;;;;;0.00;0.00;;;18.10;1.00;17.10;95890.00;;;;5061218;28;20226;-68
2022/05/12 04:06:00;;;;;;;0.00;0.00;;;18.10;1.00;17.00;95798.00;;;;5050130;28;20276;-69
2022/05/12 04:08:29;;;;;;;0.00;0.00;;;18.10;1.00;17.00;95686.00;;;;5036269;28;20273;-69
2022/05/12 04:10:58;;;;;;;0.00;0.00;;;18.10;1.00;17.00;95756.00;;;;5054041;28;20232;-68
2022/05/12 04:13:25;;;;;;;0.00;0.00;;;18.20;1.00;17.10;95784.00;;;;5073768;28;20198;-71
2022/05/12 04:15:55;;;;;;;0.00;0.00;;;18.20;1.00;17.10;95790.00;;;;5073922;28;20214;-68
2022/05/12 04:18:23;;;;;;;0.00;0.00;;;18.20;1.00;17.10;95804.00;;;;5058105;28;20209;-68
2022/05/12 04:20:53;;;;;;;0.00;0.00;;;18.20;1.00;17.10;95808.00;;;;5053477;28;20190;-68
2022/05/12 04:23:21;;;;;;;0.00;0.00;;;18.20;1.00;17.20;95838.00;;;;5053719;28;20198;-68
2022/05/12 04:25:49;;;;;;;0.00;0.00;;;18.30;1.00;17.20;95822.00;;;;5054131;28;20218;-68
2022/05/12 04:28:17;;;;;;;0.00;0.00;;;18.30;1.00;17.30;95959.00;;;;5072494;28;20194;-70
2022/05/12 04:30:45;;;;;;;0.00;0.00;;;18.30;99.90;17.30;95827.00;;;;5052400;28;20261;-69
2022/05/12 04:36:00;;;;;;;0.00;0.00;;;18.40;90.30;17.20;95839.00;;;;5050724;28;20695;-68
2022/05/12 04:38:28;;;;;;;0.00;0.00;;;18.40;1.00;17.20;95830.00;;;;5037584;28;20195;-70
2022/05/12 04:40:56;;;;;;;0.00;0.00;;;18.30;1.00;17.20;95849.00;;;;5033564;28;20207;-68
2022/05/12 04:43:24;;;;;;;0.00;0.00;;;18.30;99.90;17.10;95872.00;;;;5037850;28;20187;-68
2022/05/12 04:45:52;;;;;;;0.03;0.03;;;18.20;99.90;17.10;95804.00;;;;5049844;28;20272;-68
2022/05/12 04:48:29;;;;;;;0.00;0.00;;;18.20;1.00;17.20;95934.00;;;;5043440;28;20201;-68
2022/05/12 04:50:57;;;;;;;0.00;0.00;;;18.20;99.90;17.10;95907.00;;;;5053002;28;20238;-69
2022/05/12 04:53:25;;;;;;;0.00;0.00;;;18.20;99.90;17.20;95900.00;;;;5053237;28;20198;-68
2022/05/12 04:55:53;;;;;;;0.00;0.00;;;18.30;1.00;17.20;95882.00;;;;5053499;28;20245;-68
2022/05/12 04:58:22;;;;;;;0.00;0.00;;;18.30;1.00;17.20;95887.00;;;;5046170;28;20222;-68
2022/05/12 05:00:50;;;;;;;0.00;0.00;;;18.30;1.00;17.30;95901.00;;;;5039322;28;20202;-70
2022/05/12 05:03:18;;;;;;;0.00;0.00;;;18.40;1.00;17.30;95923.00;;;;5038823;28;20199;-68
2022/05/12 05:05:49;;;;;;;0.00;0.00;;;18.40;2.40;17.40;95907.00;;;;5045431;28;20532;-69
2022/05/12 05:08:22;;;;;;;0.00;0.00;;;18.50;99.90;17.50;95946.00;;;;5043939;28;20678;-69
2022/05/12 05:10:53;;;;;;;0.00;0.00;;;18.50;99.90;17.50;96014.00;;;;5066540;28;20631;-69
2022/05/12 05:13:21;;;;;;;0.00;0.00;;;18.50;1.00;17.50;95967.00;;;;5064458;28;20198;-69
2022/05/12 05:15:51;;;;;;;0.00;0.00;;;18.60;1.00;17.50;96012.00;;;;5052864;28;20222;-70
2022/05/12 05:18:22;;;;;;;0.00;0.00;;;18.60;1.00;17.60;95950.00;;;;5053414;28;20202;-69
2022/05/12 05:20:52;;;;;;;0.00;0.00;;;18.60;1.00;17.60;95955.00;;;;5051444;28;20668;-69
2022/05/12 05:23:22;;;;;;;0.00;0.00;;;18.60;99.90;17.70;96029.00;;;;5053340;28;20660;-69
2022/05/12 05:25:52;;;;;;;0.00;0.00;;;18.70;99.90;17.70;95978.00;;;;5052203;28;20643;-69
2022/05/12 05:28:21;;;;;;;0.10;0.10;;;18.80;99.90;17.90;96017.00;;;;5052511;28;20209;-70
2022/05/12 05:30:50;;;;;;;0.00;0.00;;;18.90;99.90;17.90;95963.00;;;;5052998;28;20283;-69
2022/05/12 05:33:20;;;;;;;0.00;0.00;;;18.90;1.00;17.90;96043.00;;;;5052729;28;20597;-69
2022/05/12 05:35:48;;;;;;;0.00;0.00;;;19.00;1.00;18.00;96040.00;;;;5051652;28;20298;-69
2022/05/12 05:38:18;;;;;;;0.00;0.00;;;19.00;1.00;18.20;96126.00;;;;5052469;28;20190;-72
2022/05/12 05:40:46;;;;;;;0.00;0.00;;;19.20;99.90;18.40;96097.00;;;;5052290;28;20202;-69
2022/05/12 05:43:15;;;;;;;0.00;0.00;;;19.40;1.00;18.30;96076.00;;;;5052589;28;20190;-70
2022/05/12 05:45:43;;;;;;;0.00;0.00;;;19.40;1.00;18.30;96148.00;;;;5051487;28;20761;-68
2022/05/12 05:48:11;;;;;;;0.00;0.00;;;19.40;1.00;18.30;96063.00;;;;5052354;28;20212;-69
2022/05/12 05:53:35;;;;;;;0.00;0.00;;;19.40;1.00;18.30;96116.00;;;;5052357;28;20201;-69
2022/05/12 05:56:06;;;;;;;0.00;0.00;;;19.40;1.00;18.40;96110.00;;;;5051767;28;20224;-69
2022/05/12 05:58:35;;;;;;;0.00;0.00;;;19.40;1.00;18.40;96074.00;;;;5071647;28;20216;-69
2022/05/12 06:01:03;;;;;;;0.00;0.00;;;19.50;1.00;18.20;96045.00;;;;5072086;28;20198;-68
2022/05/12 06:03:31;;;;;;;0.00;0.00;;;19.30;1.00;18.20;96083.00;;;;5071923;28;20190;-69
2022/05/12 06:05:59;;;;;;;0.00;0.00;;;19.30;1.00;18.40;96136.00;;;;5071167;28;20209;-69
2022/05/12 06:08:27;;;;;;;0.00;0.00;;;19.50;1.00;18.50;96145.00;;;;5071858;28;20189;-68
2022/05/12 06:11:04;;;;;;;0.00;0.00;;;19.50;1.00;18.50;96161.00;;;;5071828;28;20354;-69
2022/05/12 06:13:34;;;;;;;0.00;0.00;;;19.60;1.00;18.70;96281.00;;;;5071795;28;20189;-68
2022/05/12 06:16:04;;;;;;;0.00;0.00;;;19.60;1.00;18.70;96315.00;;;;5070135;28;20220;-68
2022/05/12 06:18:34;;;;;;;0.00;0.00;;;19.70;1.00;18.70;96192.00;;;;5071553;28;20297;-68
2022/05/12 06:21:04;;;;;;;0.00;0.00;;;19.80;1.00;18.80;96288.00;;;;5072521;28;20686;-69
2022/05/12 06:23:32;;;;;;;0.00;0.00;;;19.80;1.00;18.80;96290.00;;;;5071848;28;20247;-69
2022/05/12 06:26:02;;;;;;;0.00;0.00;;;19.80;1.00;18.90;96329.00;;;;5067501;28;20633;-69
2022/05/12 06:28:30;;;;;;;0.00;0.00;;;19.80;1.00;18.90;96308.00;;;;5038132;28;20320;-69
2022/05/12 06:30:59;;;;;;;0.00;0.00;;;19.90;1.00;18.90;96273.00;;;;5043870;28;20223;-69
2022/05/12 06:33:27;;;;;;;0.00;0.00;;;19.90;1.00;19.00;96280.00;;;;5031189;28;20195;-69
2022/05/12 06:35:57;;;;;;;0.00;0.00;;;20.00;1.00;19.10;96293.00;;;;5044528;28;20280;-69
2022/05/12 06:38:25;;;;;;;0.00;0.00;;;20.00;1.00;19.10;96339.00;;;;5051186;28;20195;-69
2022/05/12 06:40:55;;;;;;;0.00;0.00;;;20.10;1.00;18.90;96312.00;;;;5049925;28;20198;-68
2022/05/12 06:43:24;;;;;;;0.00;0.00;;;20.00;1.00;18.70;96285.00;;;;5031998;28;20242;-69
2022/05/12 06:45:55;;;;;;;0.00;0.00;;;19.80;1.00;18.90;96260.00;;;;5031422;28;20215;-69
2022/05/12 06:48:24;;;;;;;0.00;0.00;;;19.90;1.00;19.00;96281.00;;;;5032539;28;20221;-68
2022/05/12 06:50:52;;;;;;;0.00;0.00;;;19.90;1.00;19.00;96373.00;;;;5032308;28;20281;-68
2022/05/12 06:53:20;;;;;;;0.00;0.00;;;19.90;1.00;18.90;96252.00;;;;5031958;28;20225;-68
2022/05/12 06:55:48;;;;;;;0.00;0.00;;;19.90;1.00;19.00;96267.00;;;;5030991;28;20219;-68
2022/05/12 06:58:17;;;;;;;0.00;0.00;;;20.10;1.00;19.60;97102.00;;;;5031156;28;20191;-68
2022/05/12 07:00:47;;;;;;;0.00;0.00;;;20.10;1.00;19.60;97060.00;;;;5031133;28;20199;-69
2022/05/12 07:03:16;;;;;;;0.00;0.00;;;20.20;1.00;19.20;96149.00;;;;5031154;28;20195;-70
2022/05/12 07:05:44;;;;;;;0.00;0.00;;;20.30;1.00;19.30;96233.00;;;;5030665;28;20211;-68
2022/05/12 07:08:13;;;;;;;0.00;0.00;;;20.30;1.00;19.30;96176.00;;;;5046526;28;20684;-68
2022/05/12 07:10:41;;;;;;;0.00;0.00;;;20.30;1.00;19.30;96168.00;;;;5031056;28;20221;-70
2022/05/12 07:13:09;;;;;;;0.00;0.00;;;20.40;1.00;19.40;96385.00;;;;5031200;28;20195;-68
2022/05/12 07:15:38;;;;;;;0.00;0.00;;;20.40;99.90;19.20;96252.00;;;;5030557;28;20210;-69
2022/05/12 07:18:08;;;;;;;0.00;0.00;;;20.30;99.90;19.20;96217.00;;;;5031158;28;20250;-68
2022/05/12 07:28:52;;;;;;;0.00;0.00;;;20.40;99.90;19.30;96153.00;;;;5031247;28;20244;-68
2022/05/12 07:31:21;;;;;;;0.00;0.00;;;20.30;99.90;19.20;96094.00;;;;5031417;28;20219;-68
2022/05/12 07:33:51;;;;;;;0.00;0.00;;;20.30;99.90;19.10;96116.00;;;;5030822;28;20199;-68
2022/05/12 07:36:25;;;;;;;0.00;0.00;;;20.30;99.90;19.10;96193.00;;;;5045740;28;20223;-68
2022/05/12 07:38:55;;;;;;;0.00;0.00;;;20.20;99.90;19.00;96093.00;;;;5033497;28;20198;-68
2022/05/12 07:41:24;;;;;;;0.00;0.00;;;20.20;99.90;19.00;96003.00;;;;5033467;28;20620;-68
2022/05/12 07:43:54;;;;;;;0.00;0.00;;;20.10;99.90;19.20;96162.00;;;;5033738;28;20291;-69
2022/05/12 07:46:26;;;;;;;0.00;0.00;;;20.20;99.90;19.20;96200.00;;;;5037375;28;20211;-68
2022/05/12 07:48:56;;;;;;;0.00;0.00;;;20.20;99.90;19.20;96125.00;;;;5036592;28;20585;-68
2022/05/12 07:51:24;;;;;;;0.00;0.00;;;20.20;99.90;19.30;95973.00;;;;5037319;28;20705;-69
2022/05/12 07:53:53;;;;;;;0.00;0.00;;;20.30;99.90;19.50;95971.00;;;;5037604;28;20194;-70
2022/05/12 07:56:25;;;;;;;0.00;0.00;;;20.40;99.90;19.70;96065.00;;;;5036437;28;20211;-68
2022/05/12 07:58:54;;;;;;;0.00;0.00;;;20.70;99.90;19.80;96067.00;;;;5037139;28;20195;-68
2022/05/12 08:01:23;;;;;;;0.00;0.00;;;20.80;99.90;20.00;96397.00;;;;5038086;28;20675;-68
2022/05/12 08:03:53;;;;;;;0.00;0.00;;;20.80;99.90;20.00;96285.00;;;;5040641;28;20222;-69
2022/05/12 08:06:23;;;;;;;0.00;0.00;;;20.90;99.90;20.00;96256.00;;;;5044793;28;20711;-70
2022/05/12 08:08:52;;;;;;;0.00;0.00;;;20.90;99.90;20.10;96345.00;;;;5047481;28;20194;-70
2022/05/12 08:11:20;;;;;;;0.00;0.00;;;21.00;99.90;20.00;96288.00;;;;5054150;28;20213;-69
2022/05/12 08:13:48;;;;;;;0.00;0.00;;;21.00;99.90;20.70;97167.00;;;;5053932;28;20543;-69
2022/05/12 08:16:20;;;;;;;0.00;0.00;;;21.10;99.90;20.60;97181.00;;;;5053970;28;20730;-69
2022/05/12 08:18:49;;;;;;;0.00;0.00;;;21.10;99.90;19.70;96028.00;;;;5054009;28;20660;-70
2022/05/12 08:21:20;;;;;;;0.00;0.00;;;20.80;99.90;20.10;96098.00;;;;5054021;28;20191;-69
2022/05/12 08:23:50;;;;;;;0.00;0.00;;;21.00;99.90;20.10;96054.00;;;;5045049;28;20206;-69
2022/05/12 08:26:18;;;;;;;0.00;0.00;;;21.10;99.90;20.80;97200.00;;;;5037356;28;20223;-70
2022/05/12 08:28:50;;;;;;;0.00;0.00;;;21.20;99.90;20.50;96258.00;;;;5033596;28;20199;-69
2022/05/12 08:31:20;;;;;;;0.00;0.00;;;21.40;99.90;20.40;96253.00;;;;5038310;28;20268;-69
2022/05/12 08:33:48;;;;;;;0.00;0.00;;;21.40;99.90;19.90;96245.00;;;;5050720;28;20576;-70
2022/05/12 08:36:16;;;;;;;0.00;0.00;;;20.90;99.90;19.50;96220.00;;;;5043423;28;20215;-69
2022/05/12 08:38:44;;;;;;;0.00;0.00;;;20.70;99.90;19.50;96201.00;;;;5042084;28;20721;-69
2022/05/12 08:41:27;;;;;;;0.00;0.00;;;20.70;99.90;19.70;96185.00;;;;5053844;28;20195;-69
2022/05/12 08:44:00;;;;;;;0.00;0.00;;;20.70;99.90;19.90;96328.00;;;;5053597;28;20202;-69
2022/05/12 08:46:39;;;;;;;0.00;0.00;;;20.90;99.90;20.30;97164.00;;;;5053069;28;20210;-70
2022/05/12 08:49:19;;;;;;;0.00;0.00;;;20.80;99.90;20.00;97164.00;;;;5053479;28;20664;-69
2022/05/12 08:51:53;;;;;;;0.00;0.00;;;20.60;99.90;19.80;97153.00;;;;5053654;28;20698;-69
2022/05/12 08:54:27;;;;;;;0.00;0.00;;;20.40;99.90;19.80;97157.00;;;;5053966;28;20267;-69
2022/05/12 08:57:04;;;;;;;0.00;0.00;;;20.40;99.90;19.90;97154.00;;;;5053420;28;20233;-69
2022/05/12 08:59:33;;;;;;;0.00;0.00;;;20.50;99.90;20.30;97133.00;;;;5054115;28;20587;-69
2022/05/12 09:02:16;;;;;;;0.00;0.00;;;20.80;99.90;20.60;97156.00;;;;5053366;28;20544;-69
2022/05/12 09:05:02;;;;;;;0.00;0.00;;;21.00;99.90;20.90;97197.00;;;;5053115;28;20246;-69
2022/05/12 09:07:40;;;;;;;0.00;0.00;;;21.30;99.90;20.50;96250.00;;;;5060326;28;20217;-69
2022/05/12 09:10:34;;;;;;;0.00;0.00;;;21.40;99.90;20.90;96338.00;;;;5033820;28;20207;-70
2022/05/12 09:13:14;;;;;;;0.00;0.00;;;21.70;99.90;21.00;96290.00;;;;5033355;28;20234;-70
2022/05/12 09:15:53;;;;;;;0.00;0.00;;;21.80;99.90;21.10;96354.00;;;;5044856;28;20229;-69
2022/05/12 09:18:31;;;;;;;0.00;0.00;;;22.00;99.90;21.10;96385.00;;;;5053060;28;20229;-70
2022/05/12 09:21:03;;;;;;;0.00;0.00;;;22.00;99.90;21.10;96290.00;;;;5053016;28;20202;-70
2022/05/12 09:23:31;;;;;;;0.00;0.00;;;22.10;99.90;20.80;96304.00;;;;5053115;28;20195;-70
2022/05/12 09:25:59;;;;;;;0.00;0.00;;;21.80;99.90;21.00;97190.00;;;;5052192;28;20221;-70
2022/05/12 09:28:34;;;;;;;0.00;0.00;;;21.60;99.90;20.70;97173.00;;;;5052585;28;20194;-70
2022/05/12 09:31:20;;;;;;;0.00;0.00;;;21.50;99.90;20.40;97177.00;;;;5053146;28;20562;-70
2022/05/12 09:33:52;;;;;;;0.00;0.00;;;21.30;99.90;19.60;97181.00;;;;5052896;28;20583;-69
2022/05/12 09:36:29;;;;;;;0.00;0.00;;;20.80;99.90;19.70;97165.00;;;;5051687;28;20594;-69
2022/05/12 09:38:58;;;;;;;0.00;0.00;;;20.60;99.90;19.70;97150.00;;;;5052489;28;20564;-71
2022/05/12 09:41:39;;;;;;;0.00;0.00;;;20.50;99.90;20.30;97160.00;;;;5052678;28;20277;-69
2022/05/12 09:44:24;;;;;;;0.00;0.00;;;20.80;99.90;20.70;97180.00;;;;5052872;28;20209;-69
2022/05/12 09:47:01;;;;;;;0.00;0.00;;;21.10;99.90;20.20;97175.00;;;;5051751;28;20190;-70
2022/05/12 09:49:33;;;;;;;0.00;0.00;;;21.00;99.90;20.30;97183.00;;;;5052417;28;20240;-70
2022/05/12 09:52:29;;;;;;;0.00;0.00;;;20.80;99.90;20.30;97193.00;;;;5053702;28;20265;-69
2022/05/12 09:55:14;;;;;;;0.00;0.00;;;20.80;99.90;20.40;97195.00;;;;5050189;28;20650;-69
2022/05/12 09:57:55;;;;;;;0.00;0.00;;;20.80;99.90;20.70;97203.00;;;;5040296;28;20225;-70
2022/05/12 10:00:38;;;;;;;0.00;0.00;;;21.10;99.90;20.90;97186.00;;;;5039778;28;20206;-69
2022/05/12 10:09:06;;;;;;;0.00;0.00;;;21.20;99.90;20.60;97209.00;;;;5029034;28;20210;-71
2022/05/12 10:11:43;;;;;;;0.00;0.00;;;21.10;99.90;20.40;97215.00;;;;5051775;28;20560;-69
2022/05/12 10:14:24;;;;;;;0.00;0.00;;;20.90;99.90;20.60;97192.00;;;;5052349;28;20194;-69
2022/05/12 10:16:58;;;;;;;0.00;0.00;;;21.10;99.90;20.70;97209.00;;;;5051340;28;20196;-70
2022/05/12 10:19:29;;;;;;;0.00;0.00;;;21.20;99.90;20.60;97215.00;;;;5051779;28;20664;-70
2022/05/12 10:22:14;;;;;;;0.00;0.00;;;21.10;99.90;20.90;97243.00;;;;5051673;28;20194;-69
2022/05/12 10:25:02;;;;;;;0.00;0.00;;;21.30;99.90;20.60;97217.00;;;;5051700;28;20260;-69
2022/05/12 10:27:50;;;;;;;0.00;0.00;;;21.10;96.50;20.60;97220.00;;;;5051412;28;20230;-69
2022/05/12 10:30:37;;;;;;;0.00;0.00;;;21.00;95.80;20.50;97200.00;;;;5051506;28;20582;-69
2022/05/12 10:33:23;;;;;;;0.00;0.00;;;20.80;93.60;20.40;97237.00;;;;5051631;28;20222;-71
2022/05/12 10:36:08;;;;;;;0.00;0.00;;;20.80;92.90;20.30;97237.00;;;;5050867;28;20789;-69
2022/05/12 10:38:47;;;;;;;0.00;0.00;;;20.80;94.90;20.30;97249.00;;;;5051798;28;20240;-69
2022/05/12 10:41:22;;;;;;;0.00;0.00;;;20.80;90.60;20.30;97232.00;;;;5044416;28;20198;-69
2022/05/12 10:44:21;;;;;;;0.00;0.00;;;20.80;88.20;20.50;97225.00;;;;5035290;28;20225;-69
2022/05/12 10:47:00;;;;;;;0.00;0.00;;;20.90;91.00;20.80;97226.00;;;;5030667;28;20897;-69
2022/05/12 10:49:42;;;;;;;0.00;0.00;;;21.20;88.50;20.90;97203.00;;;;5031197;28;20207;-69
2022/05/12 10:52:25;;;;;;;0.00;0.00;;;21.20;87.10;20.50;97223.00;;;;5031682;28;20214;-69
2022/05/12 10:55:19;;;;;;;0.00;0.00;;;21.10;82.50;20.20;97218.00;;;;5031927;28;20215;-69
2022/05/12 10:58:01;;;;;;;0.00;0.00;;;21.00;72.80;20.30;97214.00;;;;5030081;28;20195;-69
2022/05/12 11:00:49;;;;;;;0.00;0.00;;;20.90;78.90;20.20;97219.00;;;;5031374;28;20199;-70
2022/05/12 11:03:24;;;;;;;0.00;0.00;;;20.70;65.40;20.10;97212.00;;;;5032330;28;20636;-69
2022/05/12 11:05:58;;;;;;;0.00;0.00;;;20.50;63.10;20.30;97211.00;;;;5039076;28;20226;-69
2022/05/12 11:08:36;;;;;;;0.00;0.00;;;20.70;58.70;20.70;97218.00;;;;5031183;28;20206;-70
2022/05/12 11:11:10;;;;;;;0.00;0.00;;;21.10;59.10;20.90;97215.00;;;;5031765;28;20256;-69
2022/05/12 11:13:46;;;;;;;0.00;0.00;;;21.30;54.60;21.30;97216.00;;;;5050005;28;20579;-70
2022/05/12 11:16:17;;;;;;;0.00;0.00;;;21.60;55.10;21.20;97223.00;;;;5050452;28;20256;-69
2022/05/12 11:18:57;;;;;;;0.00;0.00;;;21.80;47.60;20.90;97192.00;;;;5052947;28;20236;-69
2022/05/12 11:21:29;;;;;;;0.00;0.00;;;21.70;36.00;21.00;97221.00;;;;5055352;28;20602;-69
2022/05/12 11:24:18;;;;;;;0.00;0.00;;;21.60;32.30;20.90;97210.00;;;;5054941;28;20574;-69
2022/05/12 11:27:23;;;;;;;0.00;0.00;;;21.50;28.30;20.90;97206.00;;;;5054207;28;20205;-70
2022/05/12 11:30:31;;;;;;;0.00;0.00;;;21.40;28.60;20.70;97210.00;;;;5055555;28;20194;-70
2022/05/12 11:33:23;;;;;;;0.00;0.00;;;21.30;29.50;21.10;97221.00;;;;5054885;28;20217;-69
2022/05/12 11:35:54;;;;;;;0.00;0.00;;;21.60;36.00;21.60;97231.00;;;;5054237;28;20218;-70
2022/05/12 11:38:54;;;;;;;0.00;0.00;;;22.00;40.10;21.90;97221.00;;;;5054417;28;20203;-69